NAPEX1 KRDU-KFAY
Flight info
| Callsign | NAPEX1 |
|---|---|
| Flight time | 0h 37m |
| Altitude | VFR/030 |
| Route | |
| Aircraft | C152/L-VGD/C |
Departure
| Time | 2026-05-04 18:09 |
|---|---|
| Airport | Raleigh-Durham International Airport (KRDU) |
Arrival
| Time | 2026-05-04 18:46 |
|---|---|
| Airport | Fayetteville Regional Airport - Grannis Field (KFAY) |
| Time | Latitude | Longitude | Altitude | Speed | Heading |
|---|---|---|---|---|---|
| 2026-05-04 17:58 | 35.87877 | -78.78375 | 427 ft | 0 kts | 225° |
| 2026-05-04 18:01 | 35.87876 | -78.78376 | 445 ft | 1 kts | 225° |
| 2026-05-04 18:01 | 35.87882 | -78.78408 | 428 ft | 5 kts | 302° |
| 2026-05-04 18:02 | 35.87829 | -78.78356 | 420 ft | 12 kts | 85° |
| 2026-05-04 18:02 | 35.87881 | -78.78280 | 421 ft | 14 kts | 46° |
| 2026-05-04 18:02 | 35.87939 | -78.78209 | 423 ft | 0 kts | 44° |
| 2026-05-04 18:02 | 35.87974 | -78.78166 | 422 ft | 19 kts | 45° |
| 2026-05-04 18:03 | 35.88097 | -78.78015 | 423 ft | 29 kts | 46° |
| 2026-05-04 18:03 | 35.88237 | -78.77858 | 424 ft | 22 kts | 23° |
| 2026-05-04 18:03 | 35.88381 | -78.77834 | 425 ft | 15 kts | 327° |
| 2026-05-04 18:03 | 35.88474 | -78.77954 | 415 ft | 21 kts | 316° |
| 2026-05-04 18:04 | 35.88568 | -78.78082 | 417 ft | 14 kts | 328° |
| 2026-05-04 18:04 | 35.88643 | -78.78152 | 417 ft | 13 kts | 314° |
| 2026-05-04 18:04 | 35.88761 | -78.78264 | 418 ft | 10 kts | 17° |
| 2026-05-04 18:05 | 35.88826 | -78.78194 | 419 ft | 14 kts | 44° |
| 2026-05-04 18:05 | 35.88913 | -78.78181 | 415 ft | 13 kts | 314° |
| 2026-05-04 18:05 | 35.88932 | -78.78205 | 418 ft | 0 kts | 315° |
| 2026-05-04 18:07 | 35.88958 | -78.78267 | 423 ft | 15 kts | 266° |
| 2026-05-04 18:07 | 35.88925 | -78.78371 | 422 ft | 0 kts | 225° |
| 2026-05-04 18:07 | 35.88912 | -78.78387 | 422 ft | 18 kts | 224° |
| 2026-05-04 18:07 | 35.88715 | -78.78628 | 467 ft | 52 kts | 220° |
| 2026-05-04 18:08 | 35.88456 | -78.78910 | 674 ft | 48 kts | 224° |
| 2026-05-04 18:08 | 35.88182 | -78.79134 | 857 ft | 51 kts | 223° |
| 2026-05-04 18:08 | 35.87866 | -78.79410 | 937 ft | 57 kts | 213° |
| 2026-05-04 18:08 | 35.87525 | -78.79708 | 1001 ft | 64 kts | 223° |
| 2026-05-04 18:09 | 35.86820 | -78.80384 | 1362 ft | 65 kts | 223° |
| 2026-05-04 18:09 | 35.86167 | -78.81153 | 1805 ft | 68 kts | 227° |
| 2026-05-04 18:10 | 35.85896 | -78.81641 | 2002 ft | 72 kts | 235° |
| 2026-05-04 18:10 | 35.85566 | -78.82155 | 2132 ft | 80 kts | 216° |
| 2026-05-04 18:10 | 35.85012 | -78.82316 | 2287 ft | 81 kts | 180° |
| 2026-05-04 18:10 | 35.84487 | -78.82191 | 2581 ft | 68 kts | 174° |
| 2026-05-04 18:11 | 35.83998 | -78.82076 | 2741 ft | 74 kts | 179° |
| 2026-05-04 18:11 | 35.83496 | -78.81979 | 2847 ft | 73 kts | 181° |
| 2026-05-04 18:11 | 35.83007 | -78.81910 | 3143 ft | 66 kts | 185° |
| 2026-05-04 18:11 | 35.82502 | -78.81837 | 3116 ft | 78 kts | 180° |
| 2026-05-04 18:12 | 35.81962 | -78.81727 | 3134 ft | 77 kts | 179° |
| 2026-05-04 18:12 | 35.81479 | -78.81613 | 3337 ft | 67 kts | 180° |
| 2026-05-04 18:12 | 35.81042 | -78.81514 | 3441 ft | 63 kts | 183° |
| 2026-05-04 18:12 | 35.80607 | -78.81437 | 3573 ft | 63 kts | 182° |
| 2026-05-04 18:13 | 35.80167 | -78.81340 | 3802 ft | 63 kts | 174° |
| 2026-05-04 18:13 | 35.79710 | -78.81147 | 3912 ft | 73 kts | 174° |
| 2026-05-04 18:13 | 35.78670 | -78.80918 | 4091 ft | 83 kts | 179° |
| 2026-05-04 18:14 | 35.78072 | -78.80839 | 4002 ft | 86 kts | 187° |
| 2026-05-04 18:14 | 35.77467 | -78.80772 | 3984 ft | 88 kts | 179° |
| 2026-05-04 18:14 | 35.76841 | -78.80671 | 3987 ft | 96 kts | 179° |
| 2026-05-04 18:15 | 35.75560 | -78.80456 | 3990 ft | 92 kts | 180° |
| 2026-05-04 18:15 | 35.74281 | -78.80201 | 3944 ft | 98 kts | 179° |
| 2026-05-04 18:15 | 35.73620 | -78.80102 | 3908 ft | 92 kts | 181° |
| 2026-05-04 18:16 | 35.73004 | -78.80025 | 3927 ft | 92 kts | 182° |
| 2026-05-04 18:16 | 35.72358 | -78.79941 | 3907 ft | 90 kts | 182° |
| 2026-05-04 18:16 | 35.71730 | -78.79874 | 3855 ft | 96 kts | 184° |
| 2026-05-04 18:17 | 35.70494 | -78.79701 | 3896 ft | 83 kts | 179° |
| 2026-05-04 18:17 | 35.69906 | -78.79605 | 3955 ft | 90 kts | 183° |
| 2026-05-04 18:17 | 35.68640 | -78.79652 | 3894 ft | 96 kts | 187° |
| 2026-05-04 18:18 | 35.67994 | -78.79621 | 3956 ft | 91 kts | 181° |
| 2026-05-04 18:18 | 35.67350 | -78.79609 | 3984 ft | 93 kts | 184° |
| 2026-05-04 18:18 | 35.66711 | -78.79550 | 4011 ft | 91 kts | 179° |
| 2026-05-04 18:18 | 35.66091 | -78.79472 | 4041 ft | 89 kts | 186° |
| 2026-05-04 18:19 | 35.64771 | -78.79401 | 3951 ft | 95 kts | 184° |
| 2026-05-04 18:19 | 35.64131 | -78.79338 | 3944 ft | 92 kts | 183° |
| 2026-05-04 18:19 | 35.63485 | -78.79271 | 3863 ft | 95 kts | 182° |
| 2026-05-04 18:20 | 35.62821 | -78.79196 | 3724 ft | 98 kts | 177° |
| 2026-05-04 18:20 | 35.62171 | -78.79120 | 3772 ft | 85 kts | 182° |
| 2026-05-04 18:20 | 35.61621 | -78.79069 | 3939 ft | 82 kts | 182° |
| 2026-05-04 18:20 | 35.61074 | -78.79033 | 3993 ft | 80 kts | 184° |
| 2026-05-04 18:21 | 35.60501 | -78.79027 | 3983 ft | 86 kts | 189° |
| 2026-05-04 18:21 | 35.59870 | -78.79046 | 3869 ft | 95 kts | 185° |
| 2026-05-04 18:21 | 35.59220 | -78.79008 | 3826 ft | 91 kts | 176° |
| 2026-05-04 18:21 | 35.58613 | -78.78910 | 3876 ft | 87 kts | 181° |
| 2026-05-04 18:22 | 35.57991 | -78.78853 | 3862 ft | 92 kts | 182° |
| 2026-05-04 18:22 | 35.57382 | -78.78790 | 4003 ft | 83 kts | 180° |
| 2026-05-04 18:22 | 35.56792 | -78.78732 | 3957 ft | 87 kts | 184° |
| 2026-05-04 18:22 | 35.56186 | -78.78706 | 4032 ft | 87 kts | 187° |
| 2026-05-04 18:23 | 35.55572 | -78.78750 | 4062 ft | 92 kts | 187° |
| 2026-05-04 18:23 | 35.54927 | -78.78769 | 4061 ft | 93 kts | 187° |
| 2026-05-04 18:23 | 35.54281 | -78.78827 | 4038 ft | 90 kts | 194° |
| 2026-05-04 18:23 | 35.53649 | -78.78880 | 3921 ft | 98 kts | 181° |
| 2026-05-04 18:24 | 35.53006 | -78.78829 | 3975 ft | 89 kts | 185° |
| 2026-05-04 18:24 | 35.52396 | -78.78815 | 3968 ft | 89 kts | 184° |
| 2026-05-04 18:24 | 35.51845 | -78.78921 | 4116 ft | 80 kts | 203° |
| 2026-05-04 18:24 | 35.51225 | -78.78982 | 3961 ft | 88 kts | 189° |
| 2026-05-04 18:25 | 35.50659 | -78.79098 | 3806 ft | 79 kts | 188° |
| 2026-05-04 18:25 | 35.50129 | -78.79054 | 3975 ft | 78 kts | 183° |
| 2026-05-04 18:25 | 35.49566 | -78.79023 | 3992 ft | 84 kts | 184° |
| 2026-05-04 18:25 | 35.48972 | -78.79010 | 3987 ft | 86 kts | 185° |
| 2026-05-04 18:26 | 35.48372 | -78.78969 | 3990 ft | 86 kts | 183° |
| 2026-05-04 18:26 | 35.47776 | -78.78932 | 3994 ft | 86 kts | 186° |
| 2026-05-04 18:26 | 35.47167 | -78.78867 | 3966 ft | 89 kts | 178° |
| 2026-05-04 18:26 | 35.46553 | -78.78798 | 4037 ft | 86 kts | 184° |
| 2026-05-04 18:27 | 35.45942 | -78.78762 | 4080 ft | 89 kts | 181° |
| 2026-05-04 18:27 | 35.45362 | -78.78690 | 4203 ft | 85 kts | 184° |
| 2026-05-04 18:27 | 35.44779 | -78.78678 | 4227 ft | 86 kts | 187° |
| 2026-05-04 18:27 | 35.44132 | -78.78659 | 4072 ft | 100 kts | 178° |
| 2026-05-04 18:28 | 35.43465 | -78.78591 | 4064 ft | 93 kts | 187° |
| 2026-05-04 18:28 | 35.42824 | -78.78601 | 4070 ft | 91 kts | 188° |
| 2026-05-04 18:28 | 35.42294 | -78.78674 | 4195 ft | 76 kts | 187° |
| 2026-05-04 18:28 | 35.41699 | -78.78664 | 4181 ft | 92 kts | 186° |
| 2026-05-04 18:29 | 35.41034 | -78.78623 | 4134 ft | 96 kts | 182° |
| 2026-05-04 18:29 | 35.40378 | -78.78563 | 4096 ft | 93 kts | 185° |
| 2026-05-04 18:29 | 35.39729 | -78.78527 | 4015 ft | 93 kts | 184° |
| 2026-05-04 18:29 | 35.39090 | -78.78512 | 4013 ft | 94 kts | 186° |
| 2026-05-04 18:30 | 35.37785 | -78.78448 | 3997 ft | 94 kts | 185° |
| 2026-05-04 18:30 | 35.37109 | -78.78439 | 3938 ft | 96 kts | 184° |
| 2026-05-04 18:30 | 35.36449 | -78.78410 | 4045 ft | 91 kts | 185° |
| 2026-05-04 18:31 | 35.35799 | -78.78372 | 3979 ft | 96 kts | 185° |
| 2026-05-04 18:31 | 35.35144 | -78.78335 | 3920 ft | 93 kts | 185° |
| 2026-05-04 18:31 | 35.34498 | -78.78310 | 3877 ft | 94 kts | 187° |
| 2026-05-04 18:31 | 35.33867 | -78.78303 | 3919 ft | 88 kts | 191° |
| 2026-05-04 18:32 | 35.33273 | -78.78364 | 3865 ft | 89 kts | 189° |
| 2026-05-04 18:32 | 35.32642 | -78.78416 | 3792 ft | 93 kts | 189° |
| 2026-05-04 18:32 | 35.31976 | -78.78481 | 3755 ft | 95 kts | 192° |
| 2026-05-04 18:32 | 35.31348 | -78.78561 | 3808 ft | 90 kts | 193° |
| 2026-05-04 18:33 | 35.30719 | -78.78647 | 3802 ft | 91 kts | 192° |
| 2026-05-04 18:33 | 35.30087 | -78.78723 | 3819 ft | 91 kts | 189° |
| 2026-05-04 18:33 | 35.29500 | -78.78772 | 3917 ft | 82 kts | 192° |
| 2026-05-04 18:33 | 35.28893 | -78.78852 | 3867 ft | 92 kts | 193° |
| 2026-05-04 18:34 | 35.28237 | -78.78909 | 3818 ft | 92 kts | 182° |
| 2026-05-04 18:34 | 35.27603 | -78.78860 | 3737 ft | 88 kts | 186° |
| 2026-05-04 18:34 | 35.27070 | -78.78843 | 3953 ft | 71 kts | 184° |
| 2026-05-04 18:34 | 35.26509 | -78.78825 | 3929 ft | 85 kts | 185° |
| 2026-05-04 18:35 | 35.25917 | -78.78840 | 3910 ft | 87 kts | 189° |
| 2026-05-04 18:35 | 35.25301 | -78.78865 | 3935 ft | 89 kts | 189° |
| 2026-05-04 18:35 | 35.24677 | -78.78932 | 3893 ft | 90 kts | 190° |
| 2026-05-04 18:35 | 35.24056 | -78.78972 | 3875 ft | 91 kts | 188° |
| 2026-05-04 18:36 | 35.23427 | -78.79039 | 3824 ft | 92 kts | 187° |
| 2026-05-04 18:36 | 35.23017 | -78.79093 | 3823 ft | 88 kts | 193° |
| 2026-05-04 18:36 | 35.22177 | -78.79248 | 3839 ft | 91 kts | 199° |
| 2026-05-04 18:36 | 35.21525 | -78.79390 | 3694 ft | 95 kts | 194° |
| 2026-05-04 18:37 | 35.21101 | -78.79488 | 3660 ft | 93 kts | 194° |
| 2026-05-04 18:37 | 35.20269 | -78.79711 | 3586 ft | 92 kts | 197° |
| 2026-05-04 18:37 | 35.19647 | -78.79895 | 3562 ft | 92 kts | 197° |
| 2026-05-04 18:37 | 35.18992 | -78.80029 | 3389 ft | 97 kts | 191° |
| 2026-05-04 18:38 | 35.18539 | -78.80118 | 3295 ft | 98 kts | 194° |
| 2026-05-04 18:38 | 35.17881 | -78.80279 | 3166 ft | 99 kts | 196° |
| 2026-05-04 18:38 | 35.17214 | -78.80449 | 3069 ft | 100 kts | 197° |
| 2026-05-04 18:38 | 35.16566 | -78.80625 | 3018 ft | 95 kts | 195° |
| 2026-05-04 18:39 | 35.15952 | -78.80806 | 3108 ft | 91 kts | 192° |
| 2026-05-04 18:39 | 35.15301 | -78.80947 | 2970 ft | 100 kts | 190° |
| 2026-05-04 18:39 | 35.14617 | -78.81088 | 2915 ft | 95 kts | 196° |
| 2026-05-04 18:39 | 35.13978 | -78.81211 | 3015 ft | 93 kts | 189° |
| 2026-05-04 18:40 | 35.13345 | -78.81274 | 3024 ft | 88 kts | 189° |
| 2026-05-04 18:40 | 35.12722 | -78.81347 | 2914 ft | 92 kts | 191° |
| 2026-05-04 18:40 | 35.12084 | -78.81442 | 2779 ft | 93 kts | 192° |
| 2026-05-04 18:40 | 35.11519 | -78.81640 | 2698 ft | 88 kts | 196° |
| 2026-05-04 18:41 | 35.10867 | -78.81692 | 2574 ft | 97 kts | 186° |
| 2026-05-04 18:41 | 35.10174 | -78.81708 | 2419 ft | 101 kts | 185° |
| 2026-05-04 18:41 | 35.09482 | -78.81712 | 2297 ft | 99 kts | 184° |
| 2026-05-04 18:41 | 35.08792 | -78.81647 | 2305 ft | 99 kts | 186° |
| 2026-05-04 18:42 | 35.08150 | -78.81774 | 2491 ft | 90 kts | 198° |
| 2026-05-04 18:42 | 35.07525 | -78.81992 | 2369 ft | 93 kts | 200° |
| 2026-05-04 18:42 | 35.06914 | -78.82281 | 2213 ft | 97 kts | 204° |
| 2026-05-04 18:42 | 35.06307 | -78.82668 | 2119 ft | 99 kts | 210° |
| 2026-05-04 18:43 | 35.05705 | -78.83061 | 1967 ft | 100 kts | 208° |
| 2026-05-04 18:43 | 35.05111 | -78.83473 | 1899 ft | 96 kts | 213° |
| 2026-05-04 18:43 | 35.04597 | -78.83942 | 1859 ft | 87 kts | 210° |
| 2026-05-04 18:43 | 35.04090 | -78.84318 | 1890 ft | 84 kts | 205° |
| 2026-05-04 18:44 | 35.03593 | -78.84711 | 1880 ft | 86 kts | 220° |
| 2026-05-04 18:44 | 35.03327 | -78.85028 | 1839 ft | 76 kts | 218° |
| 2026-05-04 18:44 | 35.02800 | -78.85464 | 1607 ft | 63 kts | 210° |
| 2026-05-04 18:44 | 35.02441 | -78.85742 | 1408 ft | 61 kts | 209° |
| 2026-05-04 18:45 | 35.02046 | -78.86002 | 1198 ft | 66 kts | 209° |
| 2026-05-04 18:45 | 35.01664 | -78.86322 | 1037 ft | 65 kts | 211° |
| 2026-05-04 18:45 | 35.01289 | -78.86616 | 842 ft | 62 kts | 210° |
| 2026-05-04 18:45 | 35.00938 | -78.86867 | 642 ft | 56 kts | 207° |
| 2026-05-04 18:46 | 35.00607 | -78.87087 | 482 ft | 56 kts | 212° |
| 2026-05-04 18:46 | 35.00262 | -78.87347 | 290 ft | 57 kts | 209° |
| 2026-05-04 18:46 | 34.99953 | -78.87576 | 185 ft | 44 kts | 209° |
| 2026-05-04 18:46 | 34.99773 | -78.87714 | 185 ft | 18 kts | 226° |
| 2026-05-04 18:47 | 34.99759 | -78.87821 | 186 ft | 11 kts | 297° |
| 2026-05-04 18:47 | 34.99750 | -78.87886 | 191 ft | 6 kts | 220° |
| 2026-05-04 18:47 | 34.99728 | -78.87904 | 187 ft | 2 kts | 211° |
| 2026-05-04 18:47 | 34.99694 | -78.87930 | 188 ft | 10 kts | 214° |
| 2026-05-04 18:48 | 34.99619 | -78.87987 | 199 ft | 15 kts | 212° |
| 2026-05-04 18:48 | 34.99526 | -78.88055 | 189 ft | 17 kts | 210° |
| 2026-05-04 18:48 | 34.99424 | -78.88118 | 190 ft | 16 kts | 207° |
| 2026-05-04 18:48 | 34.99355 | -78.88203 | 198 ft | 12 kts | 270° |
| 2026-05-04 18:49 | 34.99346 | -78.88281 | 191 ft | 7 kts | 270° |